Time;durP1;ratioP1;P1;durP2;ratioP2;P2;SDS_P1;SDS_P2;PMS_P1;PMS_P2;Temp;Humidity;BMP_temperature;BMP_pressure;BME280_temperature;BME280_humidity;BME280_pressure;Samples;Min_cycle;Max_cycle;Signal;HPM_P1;HPM_P2
2022/11/25 00:00:50;;;;;;;27.25;3.88;;;;;;;;;;6246551;23;20004;-65
2022/11/25 00:03:16;;;;;;;29.02;5.88;;;;;;;;;;6246514;23;20026;-65
2022/11/25 00:05:42;;;;;;;20.13;3.88;;;;;;;;;;6246031;23;20008;-65
2022/11/25 00:08:08;;;;;;;19.83;3.42;;;;;;;;;;6246577;23;20023;-65
2022/11/25 00:10:34;;;;;;;18.45;3.13;;;;;;;;;;6246085;23;20367;-65
2022/11/25 00:13:00;;;;;;;21.15;5.20;;;;;;;;;;6246825;23;20004;-65
2022/11/25 00:15:26;;;;;;;26.52;3.92;;;;;;;;;;6246763;23;20066;-65
2022/11/25 00:17:53;;;;;;;33.17;4.45;;;;;;;;;;6246491;23;20004;-65
2022/11/25 00:20:20;;;;;;;24.55;4.28;;;;;;;;;;6246665;23;20008;-65
2022/11/25 00:22:46;;;;;;;21.77;4.18;;;;;;;;;;6246454;22;20636;-65
2022/11/25 00:25:12;;;;;;;23.13;4.38;;;;;;;;;;6246369;23;20051;-65
2022/11/25 00:27:38;;;;;;;21.98;4.28;;;;;;;;;;6246312;23;20065;-65
2022/11/25 00:30:05;;;;;;;20.77;4.38;;;;;;;;;;6246653;23;20090;-65
2022/11/25 00:32:31;;;;;;;30.92;3.72;;;;;;;;;;6246512;23;20034;-65
2022/11/25 00:34:58;;;;;;;25.55;3.42;;;;;;;;;;6246357;22;20453;-65
2022/11/25 00:37:24;;;;;;;28.33;5.05;;;;;;;;;;6245101;23;20008;-65
2022/11/25 00:39:51;;;;;;;28.75;3.30;;;;;;;;;;6244346;23;20019;-65
2022/11/25 00:45:02;;;;;;;22.52;3.05;;;;;;;;;;6244790;23;20122;-66
2022/11/25 00:47:28;;;;;;;24.65;4.07;;;;;;;;;;6246191;23;20073;-66
2022/11/25 00:49:55;;;;;;;20.27;3.88;;;;;;;;;;6244310;23;20341;-65
2022/11/25 00:52:23;;;;;;;21.17;3.38;;;;;;;;;;6244489;23;20062;-66
2022/11/25 00:54:49;;;;;;;32.05;5.45;;;;;;;;;;6245692;22;20458;-66
2022/11/25 00:57:16;;;;;;;21.13;3.42;;;;;;;;;;6244150;23;20008;-65
2022/11/25 00:59:43;;;;;;;23.35;4.32;;;;;;;;;;6246104;23;20079;-66
2022/11/25 01:02:09;;;;;;;25.15;4.57;;;;;;;;;;6246068;23;20464;-65
2022/11/25 01:04:36;;;;;;;23.15;4.20;;;;;;;;;;6244771;23;20083;-65
2022/11/25 01:07:02;;;;;;;20.10;3.83;;;;;;;;;;6244266;23;20008;-66
2022/11/25 01:09:29;;;;;;;24.98;5.07;;;;;;;;;;6245583;23;20000;-65
2022/11/25 01:11:55;;;;;;;17.52;3.42;;;;;;;;;;6245598;22;20008;-66
2022/11/25 01:14:22;;;;;;;25.35;5.43;;;;;;;;;;6245990;23;20019;-66
2022/11/25 01:16:50;;;;;;;24.13;4.63;;;;;;;;;;6245800;22;20007;-65
2022/11/25 01:19:17;;;;;;;28.83;5.57;;;;;;;;;;6245924;23;20014;-66
2022/11/25 01:21:43;;;;;;;23.38;3.90;;;;;;;;;;6243840;23;20008;-65
2022/11/25 01:24:12;;;;;;;29.35;4.22;;;;;;;;;;6245454;22;20394;-65
2022/11/25 01:26:38;;;;;;;24.08;4.78;;;;;;;;;;6245638;22;20024;-66
2022/11/25 01:29:05;;;;;;;21.65;4.10;;;;;;;;;;6245556;23;20000;-65
2022/11/25 01:31:36;;;;;;;33.63;4.88;;;;;;;;;;6245697;22;20004;-66
2022/11/25 01:34:07;;;;;;;29.73;4.28;;;;;;;;;;6245421;22;20008;-66
2022/11/25 01:36:34;;;;;;;29.00;4.07;;;;;;;;;;6243800;23;20011;-65
2022/11/25 01:39:02;;;;;;;26.15;3.60;;;;;;;;;;6245592;22;20004;-65
2022/11/25 01:41:29;;;;;;;10.63;2.83;;;;;;;;;;6244112;23;20338;-66
2022/11/25 01:44:22;;;;;;;21.15;3.15;;;;;;;;;;6245301;23;20485;-65
2022/11/25 01:47:07;;;;;;;29.77;5.53;;;;;;;;;;6238686;23;20010;-65
2022/11/25 01:49:33;;;;;;;18.10;4.05;;;;;;;;;;6244066;23;20008;-65
2022/11/25 01:52:16;;;;;;;26.83;4.63;;;;;;;;;;6243137;23;20004;-65
2022/11/25 01:54:45;;;;;;;21.05;4.95;;;;;;;;;;6245465;23;20008;-65
2022/11/25 01:57:13;;;;;;;28.42;4.50;;;;;;;;;;6243828;23;20054;-66
2022/11/25 01:59:41;;;;;;;26.15;3.88;;;;;;;;;;6243910;23;20000;-65
2022/11/25 02:02:08;;;;;;;37.80;5.07;;;;;;;;;;6245225;23;20000;-65
2022/11/25 02:04:37;;;;;;;23.75;6.20;;;;;;;;;;6243276;23;20003;-65
2022/11/25 02:07:07;;;;;;;26.23;3.97;;;;;;;;;;6244887;23;20008;-65
2022/11/25 02:09:34;;;;;;;26.33;3.70;;;;;;;;;;6243911;23;20000;-65
2022/11/25 02:12:00;;;;;;;28.30;4.15;;;;;;;;;;6243602;23;20035;-65
2022/11/25 02:14:29;;;;;;;23.05;4.90;;;;;;;;;;6243960;23;20042;-66
2022/11/25 02:16:55;;;;;;;26.00;3.80;;;;;;;;;;6245619;23;20054;-66
2022/11/25 02:19:30;;;;;;;25.85;5.00;;;;;;;;;;6245583;23;20078;-66
2022/11/25 02:21:58;;;;;;;24.13;4.55;;;;;;;;;;6243067;23;20011;-65
2022/11/25 02:24:29;;;;;;;35.13;4.15;;;;;;;;;;6245393;23;20437;-66
2022/11/25 02:26:55;;;;;;;31.33;5.05;;;;;;;;;;6243549;23;20066;-66
2022/11/25 02:29:22;;;;;;;35.90;5.65;;;;;;;;;;6243620;23;20430;-65
2022/11/25 02:31:49;;;;;;;25.65;4.07;;;;;;;;;;6245214;23;20027;-66
2022/11/25 02:34:16;;;;;;;35.63;4.97;;;;;;;;;;6243544;23;20009;-66
2022/11/25 02:36:42;;;;;;;37.50;5.47;;;;;;;;;;6244826;23;20054;-66
2022/11/25 02:39:08;;;;;;;24.15;4.10;;;;;;;;;;6243537;23;20012;-66
2022/11/25 02:41:38;;;;;;;25.38;6.32;;;;;;;;;;6243576;23;20019;-66
2022/11/25 02:44:05;;;;;;;32.40;4.93;;;;;;;;;;6243381;23;20075;-66
2022/11/25 02:46:32;;;;;;;23.83;4.88;;;;;;;;;;6243664;23;20005;-65
2022/11/25 02:49:01;;;;;;;31.50;4.72;;;;;;;;;;6242898;23;20012;-66
2022/11/25 02:51:29;;;;;;;28.10;6.45;;;;;;;;;;6243789;23;20036;-65
2022/11/25 02:53:57;;;;;;;28.35;4.00;;;;;;;;;;6243419;23;20008;-66
2022/11/25 02:56:26;;;;;;;28.55;4.30;;;;;;;;;;6243470;23;20015;-66
2022/11/25 02:58:53;;;;;;;32.75;5.80;;;;;;;;;;6243460;23;20065;-65
2022/11/25 03:01:19;;;;;;;30.83;4.18;;;;;;;;;;6243240;23;20004;-65
2022/11/25 03:03:49;;;;;;;29.52;5.38;;;;;;;;;;6243411;23;20000;-66
2022/11/25 03:06:15;;;;;;;31.92;5.97;;;;;;;;;;6242658;23;20024;-65
2022/11/25 03:08:41;;;;;;;24.17;5.18;;;;;;;;;;6243504;23;20036;-66
2022/11/25 03:11:10;;;;;;;35.63;6.32;;;;;;;;;;6242969;23;20016;-66
2022/11/25 03:13:37;;;;;;;31.65;4.85;;;;;;;;;;6243379;23;20000;-65
2022/11/25 03:16:03;;;;;;;19.27;5.20;;;;;;;;;;6244756;23;20015;-65
2022/11/25 03:18:30;;;;;;;24.50;5.80;;;;;;;;;;6243046;23;20008;-66
2022/11/25 03:20:56;;;;;;;27.10;5.05;;;;;;;;;;6244679;23;20000;-65
2022/11/25 03:23:24;;;;;;;33.97;5.45;;;;;;;;;;6243375;23;20008;-65
2022/11/25 03:25:52;;;;;;;21.95;5.22;;;;;;;;;;6245046;22;19996;-65
2022/11/25 03:28:19;;;;;;;35.85;4.55;;;;;;;;;;6243527;23;20334;-65
2022/11/25 03:30:45;;;;;;;22.23;4.72;;;;;;;;;;6245448;22;20027;-66
2022/11/25 03:33:12;;;;;;;33.40;4.57;;;;;;;;;;6242286;23;20001;-65
2022/11/25 03:35:39;;;;;;;29.05;5.20;;;;;;;;;;6243376;23;20004;-65
2022/11/25 03:38:05;;;;;;;23.67;4.35;;;;;;;;;;6243158;23;20004;-65
2022/11/25 03:40:35;;;;;;;26.63;4.00;;;;;;;;;;6243932;23;20000;-65
2022/11/25 03:43:01;;;;;;;18.20;4.20;;;;;;;;;;6245940;23;20012;-66
2022/11/25 03:45:27;;;;;;;27.98;4.22;;;;;;;;;;6244895;23;20000;-65
2022/11/25 03:47:56;;;;;;;26.85;4.45;;;;;;;;;;6244132;23;20030;-66
2022/11/25 03:50:22;;;;;;;33.85;4.72;;;;;;;;;;6244629;23;20007;-66
2022/11/25 03:52:49;;;;;;;28.45;4.22;;;;;;;;;;6245146;23;20012;-66
2022/11/25 03:55:17;;;;;;;26.13;4.55;;;;;;;;;;6244725;23;20087;-65
2022/11/25 03:57:45;;;;;;;23.83;4.68;;;;;;;;;;6246748;22;20380;-65
2022/11/25 04:00:12;;;;;;;34.88;4.95;;;;;;;;;;6244521;23;20346;-65
2022/11/25 04:02:44;;;;;;;28.55;4.93;;;;;;;;;;6246468;23;20016;-66
2022/11/25 04:05:12;;;;;;;43.22;5.53;;;;;;;;;;6245892;22;20016;-66
2022/11/25 04:07:39;;;;;;;29.83;4.60;;;;;;;;;;6244691;23;20004;-65
2022/11/25 04:10:07;;;;;;;38.75;5.75;;;;;;;;;;6244283;23;20032;-66
2022/11/25 04:12:46;;;;;;;32.80;4.00;;;;;;;;;;6244350;23;20015;-66
2022/11/25 04:15:17;;;;;;;38.93;4.90;;;;;;;;;;6244302;23;20004;-66
2022/11/25 04:17:47;;;;;;;28.60;4.13;;;;;;;;;;6243911;23;20008;-66
2022/11/25 04:20:14;;;;;;;34.78;4.95;;;;;;;;;;6244438;23;20012;-66
2022/11/25 04:22:43;;;;;;;33.45;4.13;;;;;;;;;;6244426;23;20064;-66
2022/11/25 04:25:10;;;;;;;28.70;5.00;;;;;;;;;;6244401;23;20004;-66
2022/11/25 04:27:37;;;;;;;36.05;4.45;;;;;;;;;;6244864;23;20451;-66
2022/11/25 04:30:04;;;;;;;37.60;6.38;;;;;;;;;;6243668;23;20073;-65
2022/11/25 04:32:32;;;;;;;28.45;4.50;;;;;;;;;;6242850;23;20035;-66
2022/11/25 04:34:58;;;;;;;30.10;3.65;;;;;;;;;;6243724;23;20008;-65
2022/11/25 04:37:24;;;;;;;26.23;3.92;;;;;;;;;;6244187;23;20415;-66
2022/11/25 04:39:52;;;;;;;24.70;3.42;;;;;;;;;;6219316;23;20513;-65
2022/11/25 04:42:30;;;;;;;27.85;3.88;;;;;;;;;;6244134;23;20008;-65
2022/11/25 04:44:57;;;;;;;18.42;3.65;;;;;;;;;;6244368;23;20026;-65
2022/11/25 04:47:25;;;;;;;29.63;4.43;;;;;;;;;;6244394;23;20117;-65
2022/11/25 04:49:51;;;;;;;27.80;4.25;;;;;;;;;;6246312;22;20004;-65
2022/11/25 04:52:18;;;;;;;17.98;3.58;;;;;;;;;;6244044;23;20069;-66
2022/11/25 04:54:44;;;;;;;26.42;4.32;;;;;;;;;;6244459;23;20016;-66
2022/11/25 04:57:13;;;;;;;25.35;4.47;;;;;;;;;;6244529;23;20008;-65
2022/11/25 04:59:41;;;;;;;21.33;3.75;;;;;;;;;;6245849;22;20028;-65
2022/11/25 05:02:29;;;;;;;20.58;4.38;;;;;;;;;;6244451;23;20356;-65
2022/11/25 05:05:18;;;;;;;21.42;3.78;;;;;;;;;;6245337;22;20012;-65
2022/11/25 05:07:44;;;;;;;25.90;3.85;;;;;;;;;;6244439;23;20422;-65
2022/11/25 05:10:11;;;;;;;22.52;4.22;;;;;;;;;;6244644;23;20008;-65
2022/11/25 05:12:42;;;;;;;23.48;4.03;;;;;;;;;;6243942;23;20100;-65
2022/11/25 05:15:12;;;;;;;27.27;3.92;;;;;;;;;;6243631;23;20026;-65
2022/11/25 05:17:41;;;;;;;41.15;4.18;;;;;;;;;;6244236;23;20012;-65
2022/11/25 05:20:07;;;;;;;30.95;4.30;;;;;;;;;;6244096;23;20004;-65
2022/11/25 05:22:35;;;;;;;21.65;3.83;;;;;;;;;;6245318;22;20450;-66
2022/11/25 05:25:04;;;;;;;24.05;3.85;;;;;;;;;;6244220;23;20533;-65
2022/11/25 05:27:32;;;;;;;24.50;3.63;;;;;;;;;;6243961;23;20054;-66
2022/11/25 05:30:06;;;;;;;28.13;4.40;;;;;;;;;;6243880;23;20334;-65
2022/11/25 05:32:32;;;;;;;23.00;3.50;;;;;;;;;;6243520;23;20019;-65
2022/11/25 05:35:01;;;;;;;30.90;5.18;;;;;;;;;;6244266;23;20016;-65
2022/11/25 05:37:27;;;;;;;26.45;3.85;;;;;;;;;;6245599;23;20054;-65
2022/11/25 05:40:00;;;;;;;;;;;;;;;;;;6244245;23;20008;-65
2022/11/25 05:42:52;;;;;;;30.55;3.70;;;;;;;;;;6242184;23;19907;-65
2022/11/25 05:45:19;;;;;;;16.80;3.35;;;;;;;;;;6243749;23;20515;-65
2022/11/25 05:47:45;;;;;;;26.20;4.18;;;;;;;;;;6243966;23;20008;-65
2022/11/25 05:50:16;;;;;;;19.05;4.40;;;;;;;;;;6243835;23;20008;-65
2022/11/25 05:53:00;;;;;;;18.60;3.20;;;;;;;;;;6245794;22;20123;-65
2022/11/25 05:55:27;;;;;;;22.30;3.85;;;;;;;;;;6243844;23;20019;-65
2022/11/25 05:57:53;;;;;;;18.67;4.00;;;;;;;;;;6243509;23;20036;-65
2022/11/25 06:00:20;;;;;;;20.20;5.35;;;;;;;;;;6243552;23;20074;-65
2022/11/25 06:02:51;;;;;;;19.10;3.47;;;;;;;;;;6243609;23;20087;-65
2022/11/25 06:05:18;;;;;;;25.95;4.20;;;;;;;;;;6243463;23;20023;-65
2022/11/25 06:07:45;;;;;;;26.75;5.18;;;;;;;;;;6243837;23;20012;-66
2022/11/25 06:10:11;;;;;;;22.63;4.00;;;;;;;;;;6243511;23;20008;-66
2022/11/25 06:12:39;;;;;;;29.02;3.75;;;;;;;;;;6242313;23;20505;-66
2022/11/25 06:15:06;;;;;;;19.75;3.38;;;;;;;;;;6242765;23;20038;-65
2022/11/25 06:17:34;;;;;;;29.83;4.97;;;;;;;;;;6243001;23;20012;-65
2022/11/25 06:20:09;;;;;;;29.10;4.03;;;;;;;;;;6243234;23;20008;-65
2022/11/25 06:22:35;;;;;;;34.22;4.60;;;;;;;;;;6242588;23;20039;-65
2022/11/25 06:25:02;;;;;;;19.52;4.03;;;;;;;;;;6244573;23;19996;-65
2022/11/25 06:27:29;;;;;;;22.80;3.70;;;;;;;;;;6242815;23;20006;-65
2022/11/25 06:29:55;;;;;;;28.45;3.70;;;;;;;;;;6242149;23;20334;-65
2022/11/25 06:32:21;;;;;;;20.92;4.32;;;;;;;;;;6243267;23;20047;-65
2022/11/25 06:34:59;;;;;;;23.02;4.15;;;;;;;;;;6242869;23;20442;-65
2022/11/25 06:37:39;;;;;;;26.90;4.07;;;;;;;;;;6242321;23;20086;-65
2022/11/25 06:40:05;;;;;;;28.33;4.75;;;;;;;;;;6243715;23;20020;-66
2022/11/25 06:42:31;;;;;;;23.75;4.38;;;;;;;;;;6242938;23;20015;-65
2022/11/25 06:44:57;;;;;;;29.00;3.67;;;;;;;;;;6242394;23;20011;-65
2022/11/25 06:47:23;;;;;;;22.45;3.58;;;;;;;;;;6244060;23;20011;-65
2022/11/25 06:49:50;;;;;;;25.63;3.35;;;;;;;;;;6243812;23;20011;-65
2022/11/25 06:52:16;;;;;;;26.70;6.75;;;;;;;;;;6243679;23;20031;-65
2022/11/25 06:54:42;;;;;;;26.90;5.40;;;;;;;;;;6244059;23;20008;-65
2022/11/25 06:57:09;;;;;;;25.83;3.38;;;;;;;;;;6244143;23;20007;-65
2022/11/25 06:59:35;;;;;;;22.42;4.28;;;;;;;;;;6244584;23;20011;-65
2022/11/25 07:02:01;;;;;;;18.25;3.28;;;;;;;;;;6244368;23;20008;-65
2022/11/25 07:04:27;;;;;;;19.63;3.78;;;;;;;;;;6243771;23;20481;-65
2022/11/25 07:06:53;;;;;;;14.88;3.22;;;;;;;;;;6243967;23;20016;-66
2022/11/25 07:09:21;;;;;;;30.90;3.90;;;;;;;;;;6243949;23;20028;-65
2022/11/25 07:11:48;;;;;;;23.60;4.30;;;;;;;;;;6243205;22;20012;-65
2022/11/25 07:14:15;;;;;;;27.00;4.20;;;;;;;;;;6243979;23;20004;-65
2022/11/25 07:16:42;;;;;;;30.00;4.47;;;;;;;;;;6243896;23;20011;-65
2022/11/25 07:19:09;;;;;;;14.07;3.63;;;;;;;;;;6246028;23;20324;-65
2022/11/25 07:21:36;;;;;;;18.08;3.45;;;;;;;;;;6246421;23;20056;-65
2022/11/25 07:24:03;;;;;;;17.00;2.80;;;;;;;;;;6246483;23;20326;-65
2022/11/25 07:26:30;;;;;;;19.95;3.05;;;;;;;;;;6245870;23;20003;-65
2022/11/25 07:29:00;;;;;;;15.45;3.70;;;;;;;;;;6246498;23;20011;-65
2022/11/25 07:31:28;;;;;;;13.85;3.35;;;;;;;;;;6246682;23;20066;-65
2022/11/25 07:33:55;;;;;;;14.45;3.15;;;;;;;;;;6246336;23;20011;-65
2022/11/25 07:36:21;;;;;;;20.63;4.20;;;;;;;;;;6245932;23;20449;-65
2022/11/25 07:38:48;;;;;;;15.95;3.72;;;;;;;;;;6246106;23;20015;-65
2022/11/25 07:41:15;;;;;;;22.30;4.60;;;;;;;;;;6245794;23;20012;-65
2022/11/25 07:43:44;;;;;;;22.42;4.82;;;;;;;;;;6246228;23;20008;-65
2022/11/25 07:46:12;;;;;;;23.45;4.57;;;;;;;;;;6242826;23;20012;-69
2022/11/25 07:48:39;;;;;;;34.53;5.80;;;;;;;;;;6245138;23;20401;-65
2022/11/25 07:51:05;;;;;;;25.00;5.10;;;;;;;;;;6244927;23;20008;-65
2022/11/25 07:53:31;;;;;;;19.55;5.05;;;;;;;;;;6244903;23;20011;-64
2022/11/25 07:56:01;;;;;;;33.75;6.57;;;;;;;;;;6244936;23;20449;-64
2022/11/25 07:58:27;;;;;;;28.33;5.72;;;;;;;;;;6243120;22;20012;-65
2022/11/25 08:00:53;;;;;;;30.30;7.10;;;;;;;;;;6244060;23;20004;-65
2022/11/25 08:03:19;;;;;;;32.80;8.90;;;;;;;;;;6243812;22;20007;-65
2022/11/25 08:05:45;;;;;;;32.95;11.50;;;;;;;;;;6243218;23;20012;-65
2022/11/25 08:08:11;;;;;;;138.27;49.47;;;;;;;;;;6243408;23;20015;-65
2022/11/25 08:10:40;;;;;;;71.20;29.27;;;;;;;;;;6244277;23;20028;-65
2022/11/25 08:13:06;;;;;;;90.85;35.10;;;;;;;;;;6244230;23;20020;-65
2022/11/25 08:15:32;;;;;;;92.72;35.65;;;;;;;;;;6244611;23;20004;-65
2022/11/25 08:17:58;;;;;;;90.05;34.25;;;;;;;;;;6244045;23;20000;-65
2022/11/25 08:20:24;;;;;;;77.55;30.00;;;;;;;;;;6244318;23;20460;-64
2022/11/25 08:22:50;;;;;;;68.07;28.80;;;;;;;;;;6243840;23;20019;-65
2022/11/25 08:25:16;;;;;;;71.68;28.50;;;;;;;;;;6243877;23;20004;-65
2022/11/25 08:27:43;;;;;;;75.28;29.83;;;;;;;;;;6243749;23;20046;-65
2022/11/25 08:30:09;;;;;;;75.50;30.00;;;;;;;;;;6243782;23;20296;-65
2022/11/25 08:32:38;;;;;;;46.67;17.63;;;;;;;;;;6244678;23;20079;-65
2022/11/25 08:35:05;;;;;;;39.17;14.40;;;;;;;;;;6243830;23;20706;-65
2022/11/25 08:37:32;;;;;;;41.00;12.52;;;;;;;;;;6242978;23;20015;-65
2022/11/25 08:39:58;;;;;;;38.55;10.57;;;;;;;;;;6244571;23;20015;-65
2022/11/25 08:42:25;;;;;;;39.92;12.95;;;;;;;;;;6244542;23;20011;-65
2022/11/25 08:44:52;;;;;;;37.47;10.93;;;;;;;;;;6243291;23;20013;-65
2022/11/25 08:47:18;;;;;;;27.92;11.63;;;;;;;;;;6243010;22;20062;-65
2022/11/25 08:49:45;;;;;;;34.63;11.35;;;;;;;;;;6243895;23;20015;-65
2022/11/25 08:52:11;;;;;;;32.75;10.48;;;;;;;;;;6243586;23;20030;-65
2022/11/25 08:54:37;;;;;;;41.15;10.93;;;;;;;;;;6244932;23;20008;-65
2022/11/25 08:57:04;;;;;;;31.05;10.95;;;;;;;;;;6244383;23;20004;-65
2022/11/25 08:59:30;;;;;;;37.80;7.40;;;;;;;;;;6244377;22;20027;-65
2022/11/25 09:01:56;;;;;;;29.00;6.40;;;;;;;;;;6244265;23;20010;-65
2022/11/25 09:04:22;;;;;;;28.00;7.00;;;;;;;;;;6244380;23;20008;-65
2022/11/25 09:06:48;;;;;;;23.05;7.25;;;;;;;;;;6243633;23;20078;-65
2022/11/25 09:09:14;;;;;;;30.05;9.25;;;;;;;;;;6244077;23;20011;-65
2022/11/25 09:11:41;;;;;;;33.90;10.23;;;;;;;;;;6244744;23;20054;-65
2022/11/25 09:14:07;;;;;;;31.27;10.05;;;;;;;;;;6244109;23;20020;-65
2022/11/25 09:16:33;;;;;;;33.28;6.15;;;;;;;;;;6244153;23;20442;-65
2022/11/25 09:18:59;;;;;;;27.15;6.15;;;;;;;;;;6243971;23;20039;-65
2022/11/25 09:21:26;;;;;;;27.00;5.97;;;;;;;;;;6243319;23;20004;-65
2022/11/25 09:23:53;;;;;;;29.38;6.60;;;;;;;;;;6244620;23;20004;-65
2022/11/25 09:26:26;;;;;;;33.75;6.18;;;;;;;;;;6243527;22;19996;-65
2022/11/25 09:28:53;;;;;;;24.77;6.65;;;;;;;;;;6244018;23;20004;-65
2022/11/25 09:31:19;;;;;;;23.38;7.45;;;;;;;;;;6244073;23;20010;-65
2022/11/25 09:33:45;;;;;;;35.75;6.18;;;;;;;;;;6245007;23;20503;-65
2022/11/25 09:36:12;;;;;;;33.08;6.88;;;;;;;;;;6244170;23;20015;-65
2022/11/25 09:38:39;;;;;;;24.55;4.60;;;;;;;;;;6243955;23;20004;-65
2022/11/25 09:41:14;;;;;;;26.90;6.35;;;;;;;;;;6244994;22;20441;-65
2022/11/25 09:46:47;;;;;;;20.67;4.72;;;;;;;;;;6242516;23;20004;-65
2022/11/25 09:49:27;;;;;;;37.33;5.10;;;;;;;;;;6243581;23;20003;-65
2022/11/25 09:52:12;;;;;;;24.42;4.90;;;;;;;;;;6243423;23;20004;-65
2022/11/25 09:54:47;;;;;;;40.20;5.85;;;;;;;;;;6243667;22;20008;-65
2022/11/25 09:57:23;;;;;;;19.25;4.72;;;;;;;;;;6243079;23;20008;-65
2022/11/25 09:59:53;;;;;;;28.30;4.53;;;;;;;;;;6243426;22;20014;-65
2022/11/25 10:02:27;;;;;;;25.73;4.78;;;;;;;;;;6244137;23;20476;-65
2022/11/25 10:05:08;;;;;;;31.92;6.72;;;;;;;;;;6243160;23;20027;-65
2022/11/25 10:07:44;;;;;;;27.77;4.25;;;;;;;;;;6242687;23;20004;-65
2022/11/25 10:10:25;;;;;;;32.08;4.60;;;;;;;;;;6243507;23;20016;-65
2022/11/25 10:12:52;;;;;;;33.92;4.38;;;;;;;;;;6243816;23;20016;-65
2022/11/25 10:15:21;;;;;;;31.00;4.53;;;;;;;;;;6243228;23;20011;-65
2022/11/25 10:17:59;;;;;;;28.10;4.95;;;;;;;;;;6242832;23;20012;-65
2022/11/25 10:20:27;;;;;;;37.28;4.70;;;;;;;;;;6243128;23;20015;-65
2022/11/25 10:22:55;;;;;;;23.27;4.35;;;;;;;;;;6243112;23;20000;-65
2022/11/25 10:25:23;;;;;;;31.85;6.22;;;;;;;;;;6243260;23;20008;-65
2022/11/25 10:27:52;;;;;;;31.83;6.88;;;;;;;;;;6243547;23;20731;-65
2022/11/25 10:30:26;;;;;;;28.48;4.80;;;;;;;;;;6243662;23;20035;-65
2022/11/25 10:32:54;;;;;;;30.42;4.80;;;;;;;;;;6242487;23;20092;-65
2022/11/25 10:35:24;;;;;;;32.17;5.38;;;;;;;;;;6243775;22;20007;-65
2022/11/25 10:37:54;;;;;;;28.80;4.05;;;;;;;;;;6241470;23;20004;-65
2022/11/25 10:40:20;;;;;;;22.83;3.88;;;;;;;;;;6243419;22;20426;-65
2022/11/25 10:42:46;;;;;;;22.85;4.25;;;;;;;;;;6243076;23;20073;-65
2022/11/25 10:45:12;;;;;;;25.73;5.35;;;;;;;;;;6243792;23;20071;-65
2022/11/25 10:47:41;;;;;;;27.48;4.80;;;;;;;;;;6243160;23;20008;-65
2022/11/25 10:50:17;;;;;;;33.92;5.50;;;;;;;;;;6243133;22;20401;-65
2022/11/25 10:52:49;;;;;;;28.13;4.38;;;;;;;;;;6244476;23;20007;-65
2022/11/25 10:55:17;;;;;;;24.90;4.63;;;;;;;;;;6245526;23;20318;-65
2022/11/25 10:57:44;;;;;;;26.92;5.15;;;;;;;;;;6245691;23;20333;-65
2022/11/25 11:00:24;;;;;;;26.60;4.40;;;;;;;;;;6245646;23;20004;-65
2022/11/25 11:02:50;;;;;;;32.20;6.18;;;;;;;;;;6245380;23;20377;-65
2022/11/25 11:05:16;;;;;;;28.75;4.47;;;;;;;;;;6245719;23;20012;-65
2022/11/25 11:07:44;;;;;;;25.58;5.20;;;;;;;;;;6245643;23;20039;-65
2022/11/25 11:10:18;;;;;;;22.27;4.85;;;;;;;;;;6245467;23;20115;-65
2022/11/25 11:12:58;;;;;;;31.40;4.28;;;;;;;;;;6245264;23;20012;-65
2022/11/25 11:15:24;;;;;;;27.10;5.70;;;;;;;;;;6243422;23;20101;-65
2022/11/25 11:17:50;;;;;;;23.98;4.00;;;;;;;;;;6244236;22;20011;-65
2022/11/25 11:20:37;;;;;;;25.85;4.80;;;;;;;;;;6244727;23;20004;-65
2022/11/25 11:23:11;;;;;;;25.08;5.38;;;;;;;;;;6244946;23;20038;-65
2022/11/25 11:25:38;;;;;;;31.10;4.63;;;;;;;;;;6245363;23;20557;-65
2022/11/25 11:28:24;;;;;;;19.42;4.32;;;;;;;;;;6244834;23;20003;-65
2022/11/25 11:30:56;;;;;;;26.02;3.88;;;;;;;;;;6245301;23;20008;-65
2022/11/25 11:33:40;;;;;;;25.90;3.72;;;;;;;;;;6245276;22;20079;-65
2022/11/25 11:36:06;;;;;;;35.55;5.75;;;;;;;;;;6244133;23;20015;-65
2022/11/25 11:38:35;;;;;;;23.63;3.78;;;;;;;;;;6245173;23;20028;-65
2022/11/25 11:41:15;;;;;;;29.17;4.22;;;;;;;;;;6244458;23;20052;-65
2022/11/25 11:44:07;;;;;;;23.35;4.38;;;;;;;;;;6243525;23;20070;-65
2022/11/25 11:46:34;;;;;;;24.33;4.03;;;;;;;;;;6242534;23;20011;-65
2022/11/25 11:49:06;;;;;;;29.05;5.05;;;;;;;;;;6244691;23;20055;-65
2022/11/25 11:51:32;;;;;;;20.55;3.70;;;;;;;;;;6243654;22;20450;-65
2022/11/25 11:54:07;;;;;;;22.08;3.40;;;;;;;;;;6243021;23;20015;-65
2022/11/25 11:57:22;;;;;;;18.27;3.88;;;;;;;;;;6241809;23;20070;-65
2022/11/25 11:59:49;;;;;;;43.35;4.47;;;;;;;;;;6227970;23;20066;-65
2022/11/25 12:02:21;;;;;;;26.67;4.72;;;;;;;;;;6242163;22;20004;-65
2022/11/25 12:04:56;;;;;;;14.83;3.50;;;;;;;;;;6242890;23;20036;-65
2022/11/25 12:07:41;;;;;;;13.93;3.38;;;;;;;;;;6243261;23;20520;-66
2022/11/25 12:10:16;;;;;;;9.23;2.08;;;;;;;;;;6242604;23;20015;-66
2022/11/25 12:13:01;;;;;;;10.60;2.38;;;;;;;;;;6243505;23;20035;-66
2022/11/25 12:15:33;;;;;;;16.35;2.47;;;;;;;;;;6243748;23;20011;-66
2022/11/25 12:18:04;;;;;;;10.10;2.00;;;;;;;;;;6243219;23;20012;-66
2022/11/25 12:20:36;;;;;;;10.57;1.83;;;;;;;;;;6243593;23;20353;-66
2022/11/25 12:23:37;;;;;;;8.23;2.10;;;;;;;;;;6242304;23;20061;-66
2022/11/25 12:26:08;;;;;;;12.30;2.92;;;;;;;;;;6120626;23;20470;-66
2022/11/25 12:28:47;;;;;;;12.35;2.70;;;;;;;;;;6121010;23;20010;-66
2022/11/25 12:31:42;;;;;;;11.52;2.00;;;;;;;;;;6119353;23;20010;-65
2022/11/25 12:34:16;;;;;;;14.40;3.35;;;;;;;;;;6100964;23;20093;-65
2022/11/25 12:36:44;;;;;;;14.75;2.20;;;;;;;;;;6119965;23;20519;-65
2022/11/25 12:39:16;;;;;;;13.48;2.47;;;;;;;;;;6120277;23;20006;-65
2022/11/25 12:41:44;;;;;;;10.20;2.05;;;;;;;;;;6120095;23;20356;-65
2022/11/25 12:44:18;;;;;;;9.80;2.03;;;;;;;;;;6120223;23;20013;-64
2022/11/25 12:46:46;;;;;;;15.55;2.28;;;;;;;;;;6119988;23;20017;-64
2022/11/25 12:49:25;;;;;;;15.23;2.22;;;;;;;;;;6120512;23;20010;-64
2022/11/25 12:52:09;;;;;;;16.70;2.90;;;;;;;;;;6119857;23;20017;-64
2022/11/25 12:54:41;;;;;;;20.83;4.15;;;;;;;;;;6120230;23;20014;-64
2022/11/25 12:57:07;;;;;;;29.42;6.10;;;;;;;;;;6122102;23;20017;-64
2022/11/25 12:59:39;;;;;;;23.48;6.07;;;;;;;;;;6157270;23;20008;-64
2022/11/25 13:02:11;;;;;;;18.58;5.25;;;;;;;;;;6241796;23;20046;-65
2022/11/25 13:04:47;;;;;;;26.67;3.08;;;;;;;;;;6242114;23;20040;-64
2022/11/25 13:07:16;;;;;;;19.55;4.53;;;;;;;;;;6241876;23;20015;-64
2022/11/25 13:10:01;;;;;;;19.92;3.60;;;;;;;;;;6243068;23;20000;-64
2022/11/25 13:12:34;;;;;;;16.23;3.65;;;;;;;;;;6240655;23;20319;-64
2022/11/25 13:15:12;;;;;;;24.17;4.43;;;;;;;;;;6242451;23;20372;-64
2022/11/25 13:17:42;;;;;;;14.57;2.67;;;;;;;;;;6242792;22;20345;-64
2022/11/25 13:20:26;;;;;;;12.65;2.90;;;;;;;;;;6242285;23;20069;-64
2022/11/25 13:23:09;;;;;;;19.75;2.60;;;;;;;;;;6242212;23;20043;-64
2022/11/25 13:25:36;;;;;;;13.13;2.50;;;;;;;;;;6242132;22;20442;-64
2022/11/25 13:28:03;;;;;;;23.17;3.75;;;;;;;;;;6242253;23;20223;-64
2022/11/25 13:30:32;;;;;;;16.55;2.67;;;;;;;;;;6241607;23;20008;-64
2022/11/25 13:33:10;;;;;;;16.88;2.40;;;;;;;;;;6242610;23;20007;-64
2022/11/25 13:35:43;;;;;;;19.25;2.70;;;;;;;;;;6242226;23;20008;-64
2022/11/25 13:38:27;;;;;;;18.17;2.75;;;;;;;;;;6242716;23;20019;-64
2022/11/25 13:40:58;;;;;;;23.52;3.28;;;;;;;;;;6242656;23;20012;-64
2022/11/25 13:43:24;;;;;;;15.32;2.80;;;;;;;;;;6241401;23;20012;-64
2022/11/25 13:45:50;;;;;;;13.05;2.80;;;;;;;;;;6242698;23;20365;-64
2022/11/25 13:48:22;;;;;;;22.05;2.72;;;;;;;;;;6242178;23;20008;-64
2022/11/25 13:50:49;;;;;;;15.23;2.50;;;;;;;;;;6242145;23;20011;-64
2022/11/25 13:53:31;;;;;;;19.63;2.92;;;;;;;;;;6241919;23;20482;-64
2022/11/25 13:56:16;;;;;;;23.50;3.00;;;;;;;;;;6241961;23;20011;-64
2022/11/25 13:59:02;;;;;;;18.48;2.88;;;;;;;;;;6241766;23;20012;-64
2022/11/25 14:01:28;;;;;;;18.50;3.30;;;;;;;;;;6241427;22;20020;-64
2022/11/25 14:03:56;;;;;;;21.77;3.42;;;;;;;;;;6241897;23;20002;-64
2022/11/25 14:06:27;;;;;;;17.08;2.58;;;;;;;;;;6241515;23;20016;-64
2022/11/25 14:08:53;;;;;;;21.48;2.72;;;;;;;;;;6242307;22;20000;-64
2022/11/25 14:11:22;;;;;;;26.17;3.95;;;;;;;;;;6242756;23;20000;-64
2022/11/25 14:14:07;;;;;;;17.40;3.20;;;;;;;;;;6242009;23;20008;-64
2022/11/25 14:17:09;;;;;;;17.48;3.05;;;;;;;;;;6242224;23;20058;-64
2022/11/25 14:19:44;;;;;;;14.85;2.60;;;;;;;;;;6119623;23;20457;-64
2022/11/25 14:22:10;;;;;;;18.42;2.90;;;;;;;;;;6120304;23;20010;-64
2022/11/25 14:24:39;;;;;;;11.80;2.53;;;;;;;;;;6119591;23;20471;-64
2022/11/25 14:27:12;;;;;;;20.13;3.03;;;;;;;;;;6119663;23;20464;-64
2022/11/25 14:29:41;;;;;;;17.45;3.35;;;;;;;;;;6119710;23;20064;-64
2022/11/25 14:32:10;;;;;;;20.48;3.33;;;;;;;;;;6120336;23;20064;-64
2022/11/25 14:34:40;;;;;;;16.58;3.13;;;;;;;;;;6119995;23;20017;-64
2022/11/25 14:37:16;;;;;;;16.95;3.50;;;;;;;;;;6120159;23;20014;-64
2022/11/25 14:39:57;;;;;;;12.90;2.72;;;;;;;;;;6119230;23;20014;-64
2022/11/25 14:42:24;;;;;;;20.65;3.22;;;;;;;;;;6119317;23;20021;-64
2022/11/25 14:44:54;;;;;;;15.45;3.17;;;;;;;;;;6119588;23;20056;-64
2022/11/25 14:47:24;;;;;;;26.58;3.78;;;;;;;;;;6119989;23;20018;-64
2022/11/25 14:49:55;;;;;;;19.92;2.80;;;;;;;;;;6119487;23;20021;-64